Time;durP1;ratioP1;P1;durP2;ratioP2;P2;SDS_P1;SDS_P2;PMS_P1;PMS_P2;Temp;Humidity;BMP_temperature;BMP_pressure;BME280_temperature;BME280_humidity;BME280_pressure;Samples;Min_cycle;Max_cycle;Signal;HPM_P1;HPM_P2
2022/06/08 00:01:21;;;;;;;;;2.00;2.00;;;;;20.83;51.50;100678.53;5068297;28;45372;-75
2022/06/08 00:03:53;;;;;;;;;2.00;1.00;;;;;20.34;51.63;100597.13;5074386;27;45371;-76
2022/06/08 00:06:19;;;;;;;;;2.67;2.00;;;;;20.80;51.69;100671.56;5069799;27;45490;-77
2022/06/08 00:08:45;;;;;;;;;2.33;1.00;;;;;20.47;51.54;100625.88;5071758;27;45472;-75
2022/06/08 00:11:11;;;;;;;;;4.67;1.67;;;;;20.53;51.98;100634.47;5075533;28;45772;-73
2022/06/08 00:13:37;;;;;;;;;3.00;2.00;;;;;20.71;51.82;100654.16;5063920;28;45371;-73
2022/06/08 00:16:04;;;;;;;;;2.67;2.67;;;;;20.50;51.83;100608.00;5078624;28;45390;-76
2022/06/08 00:18:29;;;;;;;;;2.33;2.33;;;;;20.74;51.71;100639.88;5077335;27;45719;-72
2022/06/08 00:20:55;;;;;;;;;2.00;2.00;;;;;20.72;51.17;100642.59;5064863;28;45500;-73
2022/06/08 00:23:21;;;;;;;;;1.00;1.00;;;;;19.97;51.72;100525.94;5078158;28;46063;-74
2022/06/08 00:25:47;;;;;;;;;3.00;3.00;;;;;20.30;51.43;100578.69;5066427;28;45515;-74
2022/06/08 00:28:14;;;;;;;;;2.00;2.00;;;;;20.40;51.60;100597.78;5057719;28;45557;-74
2022/06/08 00:30:41;;;;;;;;;2.00;1.00;;;;;20.30;51.40;100574.22;5070600;27;46716;-75
2022/06/08 00:33:06;;;;;;;;;3.00;2.67;;;;;20.59;51.43;100636.03;5054932;28;46586;-77
2022/06/08 00:35:32;;;;;;;;;2.00;2.00;;;;;20.40;51.79;100600.47;5068512;28;45386;-79
2022/06/08 00:37:58;;;;;;;;;2.00;2.00;;;;;20.41;51.64;100600.41;5077416;27;45567;-78
2022/06/08 00:40:47;;;;;;;;;2.00;2.00;;;;;20.51;51.34;100617.72;5065397;28;45414;-77
2022/06/08 00:43:13;;;;;;;;;2.33;1.00;;;;;19.91;51.97;100515.59;5043855;28;45395;-78
2022/06/08 00:45:39;;;;;;;;;3.00;2.00;;;;;20.23;51.93;100570.09;5067883;28;45922;-76
2022/06/08 00:48:06;;;;;;;;;4.00;2.00;;;;;20.01;52.27;100526.72;5059493;28;45354;-77
2022/06/08 00:50:54;;;;;;;;;2.67;2.67;;;;;20.45;52.36;100609.09;5068056;27;45374;-77
2022/06/08 00:53:25;;;;;;;;;4.33;2.00;;;;;20.24;52.36;100566.53;5053718;28;45414;-74
2022/06/08 00:55:51;;;;;;;;;4.00;2.00;;;;;20.46;52.50;100603.75;5070225;28;45344;-76
2022/06/08 00:58:24;;;;;;;;;3.67;2.33;;;;;20.36;52.66;100591.75;5077608;28;46340;-76
2022/06/08 01:00:50;;;;;;;;;2.00;1.33;;;;;20.32;52.63;100575.03;5059469;28;45480;-76
2022/06/08 01:03:17;;;;;;;;;1.00;1.00;;;;;20.04;53.10;100502.66;5077538;27;45531;-77
2022/06/08 01:05:46;;;;;;;;;1.67;1.67;;;;;20.24;53.42;100536.38;5077571;27;46290;-78
2022/06/08 01:08:32;;;;;;;;;2.00;2.00;;;;;20.56;53.59;100600.72;5075942;27;45463;-76
2022/06/08 01:11:23;;;;;;;;;1.67;1.67;;;;;20.46;53.50;100581.59;5077108;27;45516;-77
2022/06/08 01:13:50;;;;;;;;;2.67;1.67;;;;;19.75;53.47;100478.13;5066538;27;45344;-74
2022/06/08 01:16:16;;;;;;;;;2.00;1.00;;;;;20.27;53.82;100571.72;5077702;28;45462;-76
2022/06/08 01:18:42;;;;;;;;;2.00;2.00;;;;;19.84;53.58;100499.00;5076828;27;45489;-77
2022/06/08 01:21:22;;;;;;;;;2.00;2.00;;;;;20.32;54.11;100587.47;5077046;27;45504;-76
2022/06/08 01:23:56;;;;;;;;;2.00;2.00;;;;;20.30;54.18;100592.84;5075890;28;45511;-76
2022/06/08 01:26:48;;;;;;;;;2.00;2.00;;;;;20.15;54.48;100580.19;5065348;28;45575;-73
2022/06/08 01:29:36;;;;;;;;;5.00;3.00;;;;;20.19;54.66;100592.41;5063355;28;46307;-76
2022/06/08 01:32:21;;;;;;;;;5.00;2.00;;;;;20.16;54.72;100581.91;5056636;28;45865;-78
2022/06/08 01:35:21;;;;;;;;;5.00;3.67;;;;;20.09;55.04;100572.44;5067908;28;45490;-76
2022/06/08 01:38:00;;;;;;;;;4.67;2.67;;;;;20.12;55.30;100580.28;5064213;28;45648;-77
2022/06/08 01:40:49;;;;;;;;;3.00;3.00;;;;;20.13;55.24;100585.56;5062102;27;46056;-74
2022/06/08 01:43:45;;;;;;;;;2.00;2.00;;;;;20.17;55.02;100572.13;5078696;28;45532;-75
2022/06/08 01:46:28;;;;;;;;;2.33;2.33;;;;;20.20;54.90;100588.84;5080430;28;45421;-77
2022/06/08 01:49:22;;;;;;;;;8.33;2.00;;;;;20.22;54.80;100589.66;5080764;27;45416;-77
2022/06/08 01:52:00;;;;;;;;;2.33;2.33;;;;;20.23;54.47;100604.66;5070145;28;45691;-76
2022/06/08 01:54:42;;;;;;;;;1.67;1.67;;;;;20.25;54.70;100605.47;5080110;27;45554;-76
2022/06/08 01:57:46;;;;;;;;;2.33;2.33;;;;;20.22;54.87;100600.28;5080250;27;45589;-77
2022/06/08 02:00:49;;;;;;;;;2.00;2.00;;;;;20.07;55.15;100568.97;5080841;27;45548;-76
2022/06/08 02:03:29;;;;;;;;;2.33;2.00;;;;;20.06;55.12;100573.44;5037778;28;46211;-76
2022/06/08 02:06:07;;;;;;;;;1.67;1.67;;;;;19.70;54.87;100511.97;5062194;28;45422;-77
2022/06/08 02:08:51;;;;;;;;;3.33;2.67;;;;;20.16;55.21;100576.59;5080279;27;45417;-78
2022/06/08 02:11:43;;;;;;;;;3.00;3.00;;;;;20.12;55.30;100573.19;5063068;28;45412;-76
2022/06/08 02:14:18;;;;;;;;;3.00;2.00;;;;;19.73;55.58;100500.38;5080097;27;46350;-76
2022/06/08 02:16:53;;;;;;;;;2.00;2.00;;;;;19.69;55.80;100502.25;5065642;28;45309;-77
2022/06/08 02:19:25;;;;;;;;;3.00;3.00;;;;;20.10;55.35;100574.19;5084351;27;45601;-75
2022/06/08 02:22:29;;;;;;;;;2.33;2.33;;;;;20.07;55.82;100566.31;5065999;28;45543;-77
2022/06/08 02:25:28;;;;;;;;;2.00;2.00;;;;;19.65;55.80;100508.59;5027545;28;45591;-74
2022/06/08 02:28:11;;;;;;;;;3.00;1.00;;;;;19.43;56.05;100479.34;5080958;27;45539;-77
2022/06/08 02:31:09;;;;;;;;;3.33;2.00;;;;;19.98;56.57;100586.19;5080528;27;45488;-76
2022/06/08 02:36:27;;;;;;;;;3.00;2.33;;;;;19.77;56.65;100577.25;5079907;27;45462;-75
2022/06/08 02:39:00;;;;;;;;;2.00;2.00;;;;;19.38;57.08;100499.91;5078780;27;45257;-75
2022/06/08 02:41:27;;;;;;;;;5.33;2.67;;;;;19.82;56.96;100575.28;5068128;28;45559;-75
2022/06/08 02:44:02;;;;;;;;;3.00;2.00;;;;;19.60;57.63;100543.31;5080136;27;45423;-76
2022/06/08 02:46:51;;;;;;;;;5.33;3.67;;;;;19.74;57.82;100573.81;5079507;27;46336;-76
2022/06/08 02:49:17;;;;;;;;;4.67;3.00;;;;;19.27;57.72;100487.91;5060827;27;45950;-77
2022/06/08 02:51:50;;;;;;;;;4.33;1.33;;;;;19.33;58.09;100499.22;5079457;27;45553;-77
2022/06/08 02:54:21;;;;;;;;;2.00;2.00;;;;;19.59;57.82;100538.06;5078714;28;45290;-78
2022/06/08 02:57:12;;;;;;;;;3.00;1.33;;;;;19.61;58.37;100558.31;5079149;27;45497;-77
2022/06/08 02:59:54;;;;;;;;;2.00;2.00;;;;;18.67;57.70;100395.47;5080816;27;45678;-76
2022/06/08 03:02:36;;;;;;;;;2.00;2.00;;;;;19.48;58.38;100554.41;5080932;27;45275;-76
2022/06/08 03:05:17;;;;;;;;;2.00;2.00;;;;;19.51;59.30;100540.16;5079830;27;45826;-76
2022/06/08 03:07:56;;;;;;;;;2.00;2.00;;;;;18.91;59.21;100452.13;5078959;27;45374;-77
2022/06/08 03:10:24;;;;;;;;;1.33;1.00;;;;;19.31;59.09;100515.19;5079243;27;45301;-75
2022/06/08 03:13:15;;;;;;;;;2.67;2.67;;;;;19.44;59.80;100550.16;5078984;27;45398;-75
2022/06/08 03:15:47;;;;;;;;;3.00;1.00;;;;;19.37;60.23;100525.59;5061344;28;45213;-75
2022/06/08 03:18:13;;;;;;;;;2.00;2.00;;;;;19.29;60.34;100527.66;5078683;27;46605;-74
2022/06/08 03:20:39;;;;;;;;;1.67;1.67;;;;;19.26;60.63;100517.16;5078415;28;45738;-76
2022/06/08 03:23:05;;;;;;;;;2.33;2.00;;;;;19.05;60.58;100477.25;5079005;27;45433;-76
2022/06/08 03:25:31;;;;;;;;;5.00;2.00;;;;;19.14;60.90;100486.63;5078754;27;45446;-75
2022/06/08 03:27:57;;;;;;;;;2.00;2.00;;;;;18.96;61.83;100469.63;5074941;28;46602;-76
2022/06/08 03:30:23;;;;;;;;;4.00;2.33;;;;;18.76;61.91;100461.47;5056025;28;45496;-73
2022/06/08 03:32:49;;;;;;;;;2.33;2.33;;;;;18.76;61.99;100480.94;5078871;28;45391;-73
2022/06/08 03:35:15;;;;;;;;;4.33;1.33;;;;;18.55;62.58;100450.69;5078652;28;45236;-76
2022/06/08 03:37:41;;;;;;;;;5.67;3.67;;;;;18.46;62.34;100436.91;5078538;27;45899;-74
2022/06/08 03:40:08;;;;;;;;;4.33;3.00;;;;;18.63;62.84;100475.19;5066863;28;45583;-74
2022/06/08 03:42:33;;;;;;;;;3.00;1.67;;;;;18.61;62.68;100479.66;5075030;27;45456;-75
2022/06/08 03:45:00;;;;;;;;;3.00;3.00;;;;;18.30;63.18;100433.94;5078806;28;45814;-75
2022/06/08 03:47:29;;;;;;;;;3.00;3.00;;;;;18.34;63.38;100465.59;5078027;27;45607;-75
2022/06/08 03:49:59;;;;;;;;;2.67;2.00;;;;;18.03;63.99;100399.50;5078530;27;45384;-74
2022/06/08 03:52:32;;;;;;;;;2.33;2.00;;;;;18.45;63.71;100481.13;5078383;27;45516;-73
2022/06/08 03:55:02;;;;;;;;;4.00;2.00;;;;;18.37;64.34;100478.75;5079026;28;45504;-74
2022/06/08 03:57:30;;;;;;;;;3.00;3.00;;;;;18.31;64.89;100480.72;5078290;27;46090;-73
2022/06/08 03:59:56;;;;;;;;;3.00;3.00;;;;;18.34;64.50;100480.63;5078211;27;45385;-74
2022/06/08 04:02:23;;;;;;;;;4.00;2.00;;;;;18.30;64.22;100455.16;5078111;27;45510;-71
2022/06/08 04:04:49;;;;;;;;;5.33;3.00;;;;;18.38;64.13;100466.34;5077925;27;45817;-71
2022/06/08 04:07:16;;;;;;;;;4.00;3.00;;;;;18.32;64.74;100459.47;5076592;28;45569;-73
2022/06/08 04:09:41;;;;;;;;;4.00;3.67;;;;;18.32;64.74;100472.75;5079539;28;45433;-73
2022/06/08 04:12:08;;;;;;;;;4.00;3.00;;;;;18.17;64.87;100447.59;5079228;28;45317;-75
2022/06/08 04:14:34;;;;;;;;;4.00;2.33;;;;;18.27;65.15;100471.13;5076762;27;45349;-75
2022/06/08 04:17:01;;;;;;;;;4.00;3.00;;;;;18.09;65.76;100459.41;5078225;28;46237;-76
2022/06/08 04:19:27;;;;;;;;;3.33;3.00;;;;;17.95;66.11;100447.47;5078186;28;45469;-75
2022/06/08 04:21:53;;;;;;;;;3.00;3.00;;;;;17.86;66.31;100438.94;5059832;28;45556;-74
2022/06/08 04:24:20;;;;;;;;;5.33;4.33;;;;;17.98;66.78;100455.28;5078840;28;45515;-74
2022/06/08 04:26:46;;;;;;;;;4.33;3.33;;;;;17.93;66.46;100433.38;5080656;28;46116;-74
2022/06/08 04:29:12;;;;;;;;;3.00;3.00;;;;;18.08;66.81;100450.59;5080795;28;45375;-74
2022/06/08 04:31:38;;;;;;;;;2.33;2.33;;;;;18.10;66.08;100437.25;5080796;28;45453;-74
2022/06/08 04:34:06;;;;;;;;;4.00;2.33;;;;;18.06;66.56;100441.81;5062544;28;45401;-71
2022/06/08 04:36:32;;;;;;;;;2.67;2.67;;;;;18.05;66.56;100433.91;5080714;27;45354;-73
2022/06/08 04:38:59;;;;;;;;;5.00;3.00;;;;;18.04;66.63;100438.34;5078678;28;45540;-76
2022/06/08 04:41:26;;;;;;;;;4.00;4.00;;;;;17.98;66.87;100431.44;5066774;27;45397;-76
2022/06/08 04:43:53;;;;;;;;;3.00;3.00;;;;;17.84;67.11;100425.75;5078217;27;45555;-77
2022/06/08 04:46:19;;;;;;;;;2.00;1.67;;;;;17.79;67.62;100430.28;5077693;28;46247;-78
2022/06/08 04:48:46;;;;;;;;;4.00;3.00;;;;;17.72;67.75;100434.91;5078042;27;45453;-75
2022/06/08 04:51:14;;;;;;;;;6.00;3.00;;;;;17.68;68.14;100424.50;5078132;28;45461;-76
2022/06/08 04:53:42;;;;;;;;;3.33;3.33;;;;;17.62;69.28;100422.91;5078238;28;45287;-75
2022/06/08 04:56:09;;;;;;;;;8.00;3.33;;;;;17.52;68.52;100416.19;5077368;27;45453;-76
2022/06/08 04:58:35;;;;;;;;;5.33;2.33;;;;;17.53;68.52;100423.19;5077601;27;45534;-74
2022/06/08 05:01:02;;;;;;;;;4.00;3.33;;;;;17.45;68.92;100396.09;5077163;27;45444;-74
2022/06/08 05:03:29;;;;;;;;;3.33;3.00;;;;;17.54;68.80;100417.84;5069704;27;45375;-76
2022/06/08 05:05:56;;;;;;;;;4.00;3.00;;;;;17.48;69.15;100402.16;5056765;28;45501;-74
2022/06/08 05:08:23;;;;;;;;;5.00;4.67;;;;;17.52;68.69;100403.78;5057088;28;45395;-75
2022/06/08 05:10:50;;;;;;;;;2.33;2.33;;;;;17.37;69.03;100397.22;5056822;28;45331;-76
2022/06/08 05:13:17;;;;;;;;;2.00;2.00;;;;;17.32;68.94;100388.56;5067807;28;45399;-73
2022/06/08 05:15:44;;;;;;;;;7.33;3.00;;;;;17.38;69.43;100396.28;5056681;28;45717;-75
2022/06/08 05:18:12;;;;;;;;;4.33;2.00;;;;;17.28;69.02;100392.19;5056164;28;45425;-73
2022/06/08 05:20:40;;;;;;;;;7.33;3.00;;;;;17.12;69.25;100377.72;5056346;28;45499;-74
2022/06/08 05:23:11;;;;;;;;;3.33;3.33;;;;;17.24;69.85;100398.50;5056336;28;45584;-73
2022/06/08 05:25:39;;;;;;;;;5.00;3.00;;;;;17.20;69.29;100396.00;5056025;28;45395;-75
2022/06/08 05:28:07;;;;;;;;;3.00;3.00;;;;;17.14;69.90;100394.41;5056140;28;45434;-72
2022/06/08 05:30:35;;;;;;;;;2.00;2.00;;;;;17.16;69.73;100393.44;5056893;28;45426;-75
2022/06/08 05:33:01;;;;;;;;;3.67;2.33;;;;;17.19;70.36;100395.13;5056506;28;45386;-75
2022/06/08 05:35:27;;;;;;;;;3.00;3.00;;;;;17.09;69.74;100385.75;5056113;28;46329;-76
2022/06/08 05:37:53;;;;;;;;;3.00;3.00;;;;;17.12;70.11;100393.59;5056600;28;45411;-73
2022/06/08 05:40:21;;;;;;;;;6.00;3.00;;;;;16.77;70.68;100339.91;5069063;28;45650;-76
2022/06/08 05:42:46;;;;;;;;;3.00;3.00;;;;;17.00;69.82;100376.31;5057220;28;46439;-76
2022/06/08 05:45:18;;;;;;;;;3.00;2.33;;;;;17.03;69.93;100372.69;5038257;28;47958;-76
2022/06/08 05:47:44;;;;;;;;;3.67;2.00;;;;;16.96;69.84;100374.66;5059224;28;45495;-74
2022/06/08 05:50:10;;;;;;;;;3.33;3.33;;;;;16.56;70.59;100308.81;5056515;28;45988;-75
2022/06/08 05:52:37;;;;;;;;;2.33;2.33;;;;;17.00;70.80;100388.66;5056776;28;45466;-74
2022/06/08 05:55:03;;;;;;;;;3.00;3.00;;;;;16.81;70.89;100367.19;5056234;28;45569;-75
2022/06/08 05:57:28;;;;;;;;;5.00;2.67;;;;;16.84;70.82;100380.31;5056062;28;45403;-74
2022/06/08 05:59:54;;;;;;;;;3.33;3.33;;;;;16.78;71.22;100378.69;5056503;28;45435;-75
2022/06/08 06:02:20;;;;;;;;;3.33;2.67;;;;;16.81;70.94;100372.47;5058412;28;45303;-73
2022/06/08 06:04:45;;;;;;;;;4.67;2.67;;;;;16.84;70.75;100380.31;5054911;28;46881;-74
2022/06/08 06:07:12;;;;;;;;;3.00;3.00;;;;;16.68;71.78;100343.72;5056143;28;45450;-74
2022/06/08 06:09:38;;;;;;;;;4.67;3.00;;;;;16.83;71.43;100378.59;5056516;28;45593;-74
2022/06/08 06:12:05;;;;;;;;;2.67;2.67;;;;;16.63;71.73;100358.84;5056354;28;45672;-74
2022/06/08 06:14:31;;;;;;;;;2.67;2.33;;;;;16.76;72.20;100385.81;5055842;28;45289;-77
2022/06/08 06:16:57;;;;;;;;;2.00;2.00;;;;;16.75;71.86;100384.94;5054386;28;45621;-74
2022/06/08 06:19:26;;;;;;;;;2.00;2.00;;;;;16.79;72.07;100374.31;5056636;28;45858;-79
2022/06/08 06:21:52;;;;;;;;;4.67;3.00;;;;;16.90;72.09;100394.22;5056251;28;45474;-79
2022/06/08 06:24:20;;;;;;;;;3.00;3.00;;;;;16.88;71.64;100385.47;5046613;28;46220;-77
2022/06/08 06:26:46;;;;;;;;;1.00;1.00;;;;;16.89;71.74;100386.34;5071904;27;45503;-77
2022/06/08 06:29:11;;;;;;;;;4.00;4.00;;;;;16.84;72.04;100370.59;5060739;28;45536;-73
2022/06/08 06:31:46;;;;;;;;;4.00;4.00;;;;;16.97;72.36;100389.63;5076325;28;45698;-74
2022/06/08 06:34:16;;;;;;;;;6.00;2.67;;;;;17.03;72.04;100394.72;5061674;28;46930;-77
2022/06/08 06:36:42;;;;;;;;;3.00;3.00;;;;;16.43;72.10;100289.84;5050554;28;45461;-79
2022/06/08 06:39:08;;;;;;;;;4.00;2.00;;;;;16.47;72.02;100315.28;5060419;28;45335;-73
2022/06/08 06:41:35;;;;;;;;;2.67;2.67;;;;;16.99;72.08;100395.75;5052025;28;45214;-71
2022/06/08 06:44:01;;;;;;;;;3.00;3.00;;;;;17.04;71.87;100395.63;5075487;28;45622;-74
2022/06/08 06:46:27;;;;;;;;;4.00;2.00;;;;;17.07;72.14;100404.31;5078625;27;45531;-78
2022/06/08 06:48:53;;;;;;;;;3.33;2.00;;;;;17.00;72.14;100367.50;5077293;28;45469;-75
2022/06/08 06:51:19;;;;;;;;;3.00;2.00;;;;;17.08;71.57;100373.41;5050849;28;46353;-75
2022/06/08 06:53:54;;;;;;;;;2.00;2.00;;;;;17.03;71.57;100346.25;5059008;28;46517;-80
2022/06/08 06:56:20;;;;;;;;;3.00;3.00;;;;;17.39;71.47;100397.16;5080499;28;45437;-77
2022/06/08 06:58:48;;;;;;;;;2.00;2.00;;;;;17.48;71.00;100396.84;5075613;27;45548;-72
2022/06/08 07:01:16;;;;;;;;;2.67;2.67;;;;;17.24;70.62;100345.56;5066041;27;45331;-74
2022/06/08 07:03:43;;;;;;;;;2.33;2.33;;;;;17.56;70.51;100399.28;5070013;28;47829;-73
2022/06/08 07:06:11;;;;;;;;;2.00;2.00;;;;;17.64;70.78;100401.69;5064303;28;45418;-75
2022/06/08 07:08:37;;;;;;;;;3.00;3.00;;;;;17.35;70.23;100354.03;5052807;28;45418;-76
2022/06/08 07:13:49;;;;;;;;;1.00;1.00;;;;;17.56;69.93;100380.75;5060023;28;45884;-76
2022/06/08 07:16:15;;;;;;;;;2.00;2.00;;;;;17.22;69.87;100328.88;5059397;28;45359;-76
2022/06/08 07:18:41;;;;;;;;;3.67;3.33;;;;;17.61;69.97;100407.94;5042895;28;45498;-77
2022/06/08 07:21:13;;;;;;;;;2.00;2.00;;;;;17.53;70.32;100392.28;5076912;28;45429;-78
2022/06/08 07:23:39;;;;;;;;;3.33;3.33;;;;;17.23;69.91;100349.13;5048968;28;47796;-73
2022/06/08 07:26:05;;;;;;;;;3.00;3.00;;;;;17.62;70.16;100412.31;5063951;28;45499;-76
2022/06/08 07:28:31;;;;;;;;;5.00;3.00;;;;;17.66;70.21;100408.66;5063703;27;45401;-74
2022/06/08 07:30:56;;;;;;;;;2.00;2.00;;;;;17.67;69.92;100397.13;5064308;28;45384;-71
2022/06/08 07:33:22;;;;;;;;;2.00;2.00;;;;;17.57;69.56;100385.13;5055172;28;47571;-72
2022/06/08 07:35:48;;;;;;;;;1.00;1.00;;;;;17.65;69.25;100401.59;5063981;28;45507;-70
2022/06/08 07:38:14;;;;;;;;;2.00;1.00;;;;;17.63;69.58;100399.94;5060945;28;45310;-71
2022/06/08 07:40:39;;;;;;;;;2.00;2.00;;;;;17.66;70.29;100407.78;5062150;28;45221;-70
2022/06/08 07:43:05;;;;;;;;;2.00;2.00;;;;;17.67;69.85;100398.91;5058031;28;45426;-73
2022/06/08 07:45:31;;;;;;;;;1.33;1.33;;;;;17.77;69.95;100406.53;5084843;27;45441;-74
2022/06/08 07:50:42;;;;;;;;;4.67;4.67;;;;;17.70;69.83;100381.16;5067237;28;45449;-70
2022/06/08 07:53:15;;;;;;;;;2.00;2.00;;;;;17.90;69.56;100391.13;5058630;28;45461;-72
2022/06/08 07:55:41;;;;;;;;;3.00;1.33;;;;;17.98;69.14;100390.84;5058196;28;45518;-71
2022/06/08 07:58:07;;;;;;;;;2.33;1.00;;;;;18.04;69.23;100405.69;5077788;27;45403;-72
2022/06/08 08:00:34;;;;;;;;;1.00;1.00;;;;;17.90;69.14;100395.56;5069540;27;45354;-70
2022/06/08 08:02:59;;;;;;;;;2.00;2.00;;;;;17.87;69.36;100396.53;5059852;28;46391;-71
2022/06/08 08:05:26;;;;;;;;;1.00;1.00;;;;;17.93;69.19;100398.09;5059698;28;45114;-71
2022/06/08 08:07:52;;;;;;;;;1.67;1.67;;;;;17.99;69.40;100393.44;5059136;28;45470;-74
2022/06/08 08:10:22;;;;;;;;;2.33;1.00;;;;;17.97;69.52;100410.31;5061761;28;45437;-70
2022/06/08 08:12:48;;;;;;;;;2.00;0.67;;;;;18.04;69.14;100390.66;5051567;28;47570;-70
2022/06/08 08:15:16;;;;;;;;;1.33;0.67;;;;;18.21;69.24;100387.41;5064999;28;45308;-70
2022/06/08 08:17:51;;;;;;;;;1.00;1.00;;;;;18.28;68.88;100373.00;5058948;28;45330;-71
2022/06/08 08:20:18;;;;;;;;;1.00;1.00;;;;;18.62;68.12;100398.31;5058803;28;45493;-72
2022/06/08 08:22:46;;;;;;;;;2.00;1.00;;;;;18.78;67.92;100393.34;5059470;28;45489;-73
2022/06/08 08:25:16;;;;;;;;;1.00;1.00;;;;;18.95;67.13;100372.31;5061141;28;45387;-71
2022/06/08 08:27:44;;;;;;;;;0.67;0.67;;;;;19.19;66.83;100367.00;5052442;28;45407;-70
2022/06/08 08:30:12;;;;;;;;;1.00;1.00;;;;;19.55;65.93;100377.94;5060928;28;45472;-74
2022/06/08 08:32:39;;;;;;;;;1.00;0.00;;;;;19.71;65.96;100378.19;5068759;27;48226;-77
2022/06/08 08:35:04;;;;;;;;;3.67;1.00;;;;;19.89;65.62;100371.25;5065258;27;45534;-73
2022/06/08 08:37:43;;;;;;;;;3.00;1.00;;;;;19.99;65.70;100353.97;5070109;28;45490;-78
2022/06/08 08:40:38;;;;;;;;;2.67;1.00;;;;;19.80;65.20;100322.00;5071065;28;45421;-74
2022/06/08 08:43:12;;;;;;;;;1.00;1.00;;;;;20.05;64.92;100366.13;5057436;28;46165;-77
2022/06/08 08:46:03;;;;;;;;;0.33;0.33;;;;;19.97;64.90;100361.16;5065864;28;45375;-71
2022/06/08 08:48:52;;;;;;;;;1.00;1.00;;;;;20.05;64.86;100380.31;5039846;28;45577;-74
2022/06/08 08:51:25;;;;;;;;;0.67;0.67;;;;;20.03;65.16;100383.97;5068208;28;45546;-74
2022/06/08 08:54:04;;;;;;;;;2.00;2.00;;;;;20.01;65.61;100380.50;5058505;28;46265;-72
2022/06/08 08:56:38;;;;;;;;;2.67;2.67;;;;;19.98;65.85;100393.91;5061945;28;45366;-74
2022/06/08 08:59:16;;;;;;;;;1.00;1.00;;;;;19.94;64.99;100397.63;5059199;28;45437;-73
2022/06/08 09:01:45;;;;;;;;;1.00;1.00;;;;;19.84;65.08;100386.53;5062342;28;45366;-74
2022/06/08 09:04:32;;;;;;;;;1.00;1.00;;;;;19.83;65.03;100380.31;5061002;28;45403;-76
2022/06/08 09:07:12;;;;;;;;;1.00;1.00;;;;;19.95;64.37;100399.34;5064371;28;45562;-77
2022/06/08 09:09:38;;;;;;;;;0.67;0.67;;;;;20.02;64.64;100400.81;5079304;28;45385;-76
2022/06/08 09:12:20;;;;;;;;;1.67;1.00;;;;;19.96;64.55;100377.19;5067994;28;45220;-79
2022/06/08 09:14:58;;;;;;;;;0.00;0.00;;;;;19.86;64.20;100347.44;5062952;28;45557;-75
2022/06/08 09:17:34;;;;;;;;;0.00;0.00;;;;;19.95;63.98;100344.41;5064755;28;45364;-76
2022/06/08 09:20:03;;;;;;;;;1.00;0.00;;;;;20.07;63.50;100329.72;5059932;28;45294;-76
2022/06/08 09:22:32;;;;;;;;;2.33;1.00;;;;;20.75;63.01;100402.06;5040254;28;45434;-75
2022/06/08 09:25:23;;;;;;;;;1.00;1.00;;;;;20.90;62.49;100381.88;5057994;28;45500;-76
2022/06/08 09:27:52;;;;;;;;;0.33;0.33;;;;;21.07;62.42;100379.31;5046856;28;45316;-75
2022/06/08 09:30:27;;;;;;;;;1.00;1.00;;;;;21.18;62.08;100376.13;5049210;28;45402;-71
2022/06/08 09:33:13;;;;;;;;;1.67;1.67;;;;;21.43;62.34;100393.59;5057796;28;45347;-75
2022/06/08 09:35:55;;;;;;;;;6.00;3.00;;;;;21.54;61.80;100389.47;5056367;28;45426;-73
2022/06/08 09:38:24;;;;;;;;;1.33;1.33;;;;;21.56;62.09;100360.09;5056208;28;45497;-74
2022/06/08 09:41:25;;;;;;;;;1.00;1.00;;;;;21.75;61.24;100378.69;5059732;28;45306;-73
2022/06/08 09:44:08;;;;;;;;;1.00;1.00;;;;;22.02;60.52;100389.78;5062135;28;45632;-73
2022/06/08 09:53:11;;;;;;;;;1.00;1.00;;;;;22.40;58.14;100371.81;5076710;28;45296;-74
2022/06/08 09:56:02;;;;;;;;;2.67;2.00;;;;;22.34;57.98;100348.13;5076735;28;45434;-75
2022/06/08 09:58:55;;;;;;;;;3.00;1.67;;;;;22.68;56.86;100389.00;5064510;27;46323;-73
2022/06/08 10:01:52;;;;;;;;;1.00;1.00;;;;;22.71;56.92;100380.84;5073397;27;45409;-74
2022/06/08 10:04:32;;;;;;;;;2.67;2.33;;;;;22.84;56.37;100378.38;5062003;28;45405;-75
2022/06/08 10:07:27;;;;;;;;;2.00;2.00;;;;;22.94;55.73;100379.56;5059850;28;45529;-74
2022/06/08 10:10:02;;;;;;;;;5.00;3.00;;;;;22.96;56.33;100367.00;5011411;28;45790;-74
2022/06/08 10:12:28;;;;;;;;;2.00;2.00;;;;;23.17;55.90;100370.31;5059569;28;45462;-75
2022/06/08 10:15:09;;;;;;;;;2.00;1.00;;;;;23.10;55.13;100342.22;5059372;28;45477;-76
2022/06/08 10:17:47;;;;;;;;;2.00;2.00;;;;;23.21;54.93;100353.19;5060051;28;45383;-74
2022/06/08 10:20:29;;;;;;;;;1.00;1.00;;;;;23.11;55.08;100340.41;5059565;28;45472;-77
2022/06/08 10:23:05;;;;;;;;;1.33;1.33;;;;;23.01;54.64;100326.72;5059550;28;45468;-73
2022/06/08 10:25:38;;;;;;;;;3.67;3.67;;;;;22.59;54.20;100256.03;5059299;28;45423;-76
2022/06/08 10:28:15;;;;;;;;;2.00;2.00;;;;;22.86;53.72;100293.69;5059444;28;45342;-74
2022/06/08 10:31:06;;;;;;;;;2.67;2.67;;;;;23.08;52.94;100322.75;5059259;28;46024;-75
2022/06/08 10:34:03;;;;;;;;;1.50;1.50;;;;;23.33;52.89;100351.63;5059475;28;45472;-76
2022/06/08 10:36:33;;;;;;;;;3.00;2.00;;;;;23.15;52.69;100310.78;5059645;28;45506;-73
2022/06/08 10:39:02;;;;;;;;;2.00;1.50;;;;;23.24;52.98;100366.34;5041334;28;45490;-73
2022/06/08 10:44:31;;;;;;;;;2.25;1.00;;;;;22.96;53.50;100360.81;5079550;27;45543;-72
2022/06/08 10:47:21;;;;;;;;;2.00;1.00;;;;;22.90;54.25;100375.38;5062066;28;45350;-71
2022/06/08 10:49:52;;;;;;;;;2.00;2.00;;;;;22.74;54.87;100377.16;5062873;28;45511;-72
2022/06/08 10:52:17;;;;;;;;;2.00;2.00;;;;;22.63;55.86;100364.38;5081385;27;45498;-72
2022/06/08 10:54:55;;;;;;;;;1.00;1.00;;;;;22.47;56.16;100356.34;5083466;28;45480;-72
2022/06/08 10:57:42;;;;;;;;;2.00;2.00;;;;;22.35;56.62;100379.22;5080591;28;45539;-73
2022/06/08 11:00:19;;;;;;;;;4.00;4.00;;;;;22.24;56.66;100386.91;5069843;28;45353;-76
2022/06/08 11:03:01;;;;;;;;;3.00;3.00;;;;;22.14;57.15;100382.94;5080270;27;45524;-72
2022/06/08 11:05:44;;;;;;;;;2.00;2.00;;;;;22.03;57.45;100387.03;5078743;27;45436;-73
2022/06/08 11:08:16;;;;;;;;;3.33;3.00;;;;;22.12;57.15;100398.19;5078473;27;45184;-73
2022/06/08 11:10:44;;;;;;;;;3.00;3.00;;;;;22.40;57.02;100395.84;5069503;27;45499;-73
2022/06/08 11:13:32;;;;;;;;;3.33;3.33;;;;;22.67;56.62;100389.09;5052765;28;47774;-76
2022/06/08 11:16:21;;;;;;;;;5.00;3.33;;;;;22.72;56.79;100363.03;5060602;28;45477;-73
2022/06/08 11:18:55;;;;;;;;;25.33;25.33;;;;;23.06;56.05;100396.75;5067572;28;45501;-72
2022/06/08 11:21:37;;;;;;;;;21.00;17.00;;;;;23.17;56.34;100382.81;5062167;28;45179;-74
2022/06/08 11:24:23;;;;;;;;;115.67;107.00;;;;;23.16;56.04;100381.09;5071962;28;45791;-71
2022/06/08 11:27:00;;;;;;;;;144.25;126.75;;;;;22.91;56.69;100362.88;5064254;28;45927;-73
2022/06/08 11:29:29;;;;;;;;;160.25;151.75;;;;;22.91;56.19;100386.91;5053727;28;46167;-73
2022/06/08 11:31:57;;;;;;;;;103.75;96.50;;;;;22.81;55.07;100387.41;5063374;28;45521;-74
2022/06/08 11:35:07;;;;;;;;;137.67;124.33;;;;;22.42;55.87;100324.56;5064403;28;45344;-74
2022/06/08 11:38:23;;;;;;;;;79.25;68.75;;;;;23.05;54.97;100377.22;5064031;28;45527;-75
2022/06/08 11:40:49;;;;;;;;;40.33;35.00;;;;;23.34;54.01;100374.72;5045009;28;45526;-72
2022/06/08 11:43:36;;;;;;;;;23.00;21.00;;;;;23.61;53.40;100355.34;5077521;27;45439;-73
2022/06/08 11:46:04;;;;;;;;;12.00;11.00;;;;;23.77;51.95;100361.56;5076253;28;46537;-74
2022/06/08 11:48:44;;;;;;;;;8.67;7.00;;;;;23.93;51.06;100356.16;5074455;28;45413;-72
2022/06/08 11:51:09;;;;;;;;;15.33;11.33;;;;;24.01;51.06;100347.69;5054468;28;45576;-73
2022/06/08 11:53:38;;;;;;;;;15.33;14.67;;;;;24.07;50.31;100355.34;5074259;28;45450;-73
2022/06/08 11:56:13;;;;;;;;;18.00;16.00;;;;;24.05;50.22;100363.47;5076495;27;45568;-74
2022/06/08 11:58:45;;;;;;;;;17.00;16.33;;;;;24.03;50.38;100362.69;5075648;28;45484;-72
2022/06/08 12:01:17;;;;;;;;;9.33;9.33;;;;;23.87;49.61;100345.81;5075729;27;45456;-73
2022/06/08 12:03:46;;;;;;;;;8.33;8.33;;;;;23.85;49.00;100361.13;5075739;28;46716;-72
2022/06/08 12:06:14;;;;;;;;;13.33;10.00;;;;;23.77;49.05;100371.41;5075997;28;46163;-73
2022/06/08 12:08:44;;;;;;;;;6.33;6.00;;;;;23.71;48.73;100367.25;5074726;28;45457;-72